Weather at Brownsville South Padre Island International Airport

Public forecast

Using degrees Fahrenheit for public forecast. Weather courtesy of forecast.io.

Current aviation weather report (METAR) for Brownsville South Padre Island International Airport

Retrieved 2021/03/05 13:53 UTC (56 minutes ago):

KBRO 051353Z 35003KT 7SM OVC009 21/18 A2995 RMK AO2 SLP139 T02110183

Aviation forecast (TAF) for Brownsville South Padre Island International Airport

Retrieved 2021/03/05 12:42 UTC (2 hours ago):

TAF KBRO 051140Z 0512/0612 15009KT P6SM BKN013 BKN021 OVC029 TEMPO 0512/0515 4SM -SHRA BR OVC008 FM052000 31007KT P6SM VCSH OVC018 FM052100 32008KT P6SM OVC030 PROB30 0521/0524 4SM -SHRA OVC025 FM060000 04005KT P6SM SCT250